30 de septiembre de 2022

Hora Código Tiempo Temp. Visibilidad Cielo nuboso Viento METAR/SPECI
10:50
V
12 °C 10 km+ - 210° 210° 5 kt METAR EDWE 300850Z 21005KT 170V240 CAVOK 12/09 Q1008
10:20
V
11 °C 10 km+ - 190° 190° 5 kt METAR EDWE 300820Z 19005KT 160V220 CAVOK 11/09 Q1008
09:50
V
10 °C 10 km+ - 200° 200° 5 kt METAR EDWE 300750Z 20005KT 160V250 CAVOK 10/08 Q1008
09:20
V
10 °C 10 km+ - 200° 200° 5 kt METAR EDWE 300720Z 20005KT 170V240 CAVOK 10/08 Q1008
08:50
V
10 °C 10 km+ - 210° 210° 4 kt METAR EDWE 300650Z 21004KT CAVOK 10/09 Q1008
07:50
L
6 °C 350 m - Var Var 2 kt METAR EDWE 300550Z VRB02KT 0350 R25/0650U FG NSC 06/06 Q1008
07:20
I
6 °C 1,5 km - Var Var 1 kt METAR EDWE 300520Z VRB01KT 1500 BR NSC 06/06 Q1008
06:50
I
7 °C 1,8 km - 140° 140° 3 kt METAR EDWE 300450Z 14003KT 1800 BR NSC 07/06 Q1008
06:20
V
7 °C 10 km+ - 250° 250° 4 kt METAR EDWE 300420Z 25004KT CAVOK 07/06 Q1007
05:50
V
8 °C 10 km+ - 250° 250° 6 kt METAR EDWE 300350Z AUTO 25006KT 9999 // FEW071/// 08/07 Q1007
05:20
V
7 °C 10 km+ 7.100 ft 230° 230° 5 kt METAR EDWE 300320Z AUTO 23005KT 9999 // BKN071/// 07/07 Q1007
04:50
V
7 °C 10 km+ 7.300 ft 220° 220° 3 kt METAR EDWE 300250Z AUTO 22003KT 9999 // BKN073/// 07/06 Q1007
04:20
V
8 °C 10 km+ - 230° 230° 3 kt METAR EDWE 300220Z AUTO 23003KT 9999 // FEW076/// 08/07 Q1007
03:50
V
8 °C 10 km+ - 290° 290° 3 kt METAR EDWE 300150Z AUTO 29003KT 9999 // NCD 08/07 Q1007
03:20
V
7 °C 10 km+ - 280° 280° 3 kt METAR EDWE 300120Z AUTO 28003KT 9999 // FEW070/// 07/06 Q1007
02:50
V
8 °C 10 km+ 7.300 ft 280° 280° 3 kt METAR EDWE 300050Z AUTO 28003KT 260V340 9999 // SCT060/// OVC073/// 08/07 Q1006
02:20
V
9 °C 10 km+ 7.100 ft 270° 270° 5 kt METAR EDWE 300020Z AUTO 27005KT 9999 // BKN071/// 09/08 Q1006
01:50
V
9 °C 10 km+ 7.200 ft 240° 240° 4 kt METAR EDWE 292350Z AUTO 24004KT 9999 // BKN072/// BKN100/// 09/08 Q1006
01:20
V
9 °C 10 km+ 6.900 ft Var Var 2 kt METAR EDWE 292320Z AUTO VRB02KT 9999 // SCT057/// OVC069/// 09/08 Q1006
00:50
V
9 °C 10 km+ 5.300 ft 280° 280° 4 kt METAR EDWE 292250Z AUTO 28004KT 250V320 9999 // FEW046/// BKN053/// OVC067/// 09/08 Q1007
00:20
V
9 °C 10 km+ - 240° 240° 3 kt METAR EDWE 292220Z AUTO 24003KT 9999 // FEW018/// SCT038/// 09/08 Q1006

29 de septiembre de 2022

Hora Código Tiempo Temp. Visibilidad Cielo nuboso Viento METAR/SPECI
23:50
V
8 °C 10 km+ - 300° 300° 3 kt METAR EDWE 292150Z AUTO 30003KT 260V030 9999 // FEW018/// SCT028/// 08/07 Q1006
23:20
V
10 °C 10 km+ 6.800 ft 270° 270° 4 kt METAR EDWE 292120Z AUTO 27004KT 9999 // BKN068/// 10/08 Q1006
22:50
V
10 °C 10 km+ 6.500 ft 240° 240° 5 kt METAR EDWE 292050Z AUTO 24005KT 210V270 9999 // FEW035/// OVC065/// 10/09 Q1006
22:20
V
9 °C 10 km+ 4.700 ft 270° 270° 3 kt METAR EDWE 292020Z AUTO 27003KT 9999 // FEW029/// BKN047/// 09/08 Q1006
21:50
V
10 °C 10 km+ - 260° 260° 3 kt METAR EDWE 291950Z AUTO 26003KT 9999 // SCT035/// SCT051/// 10/09 Q1005
21:20
V
11 °C 10 km+ 6.800 ft 250° 250° 4 kt METAR EDWE 291920Z AUTO 25004KT 9999 // BKN068/// 11/09 Q1005
20:50
V
11 °C 10 km+ 6.800 ft 240° 240° 4 kt METAR EDWE 291850Z AUTO 24004KT 9999 // FEW029/// OVC068/// 11/09 Q1005
14:50
M
14 °C 10 km+ 2.700 ft 290° 290° 7 kt METAR EDWE 291250Z 29007KT 250V330 9999 BKN027 14/09 Q1002
14:20
V
14 °C 10 km+ - 280° 280° 6 kt METAR EDWE 291220Z 28006KT 250V330 9999 SCT028 SCT031 14/08 Q1002
13:50
V
14 °C 10 km+ 3.000 ft 280° 280° 6 kt METAR EDWE 291150Z 28006KT 240V320 9999 SCT020 BKN030 14/07 Q1002
11:50
V
12 °C 10 km+ - 230° 230° 6 kt METAR EDWE 290950Z 23006KT CAVOK 12/10 Q1001
11:20
V
12 °C 10 km+ - 240° 240° 5 kt METAR EDWE 290920Z 24005KT 9999 FEW008 12/10 Q1001
10:50
V
11 °C 10 km+ - 210° 210° 4 kt METAR EDWE 290850Z 21004KT 180V240 CAVOK 11/10 Q1001
10:20
V
10 °C 10 km+ - 220° 220° 4 kt METAR EDWE 290820Z 22004KT 9999 FEW004 10/09 Q1001
09:50
M
8 °C 6 km - Var Var 1 kt METAR EDWE 290750Z VRB01KT 6000 NSC 08/08 Q1001
09:20
L
7 °C 300 m - Var 000° 0 kt METAR EDWE 290720Z 00000KT 0300 R07/P2000N FG NSC 07/06 Q1000
08:50
L
4 °C 400 m - Var 000° 0 kt METAR EDWE 290650Z 00000KT 0400 R07/P2000N FG FEW004 04/04 Q1000
08:20
L
3 °C 600 m - Var 000° 0 kt METAR EDWE 290620Z 00000KT 0600 R07/0900D FG FEW004 03/03 Q1000
07:50
L
3 °C 350 m - Var Var 2 kt METAR EDWE 290550Z VRB02KT 0350 R07/0650U FG VV/// 03/03 Q1000
07:20
L
2 °C 300 m - Var Var 2 kt METAR EDWE 290520Z VRB02KT 0300 R07/0650D FG VV/// 02/02 Q1000
06:50
L
2 °C 500 m - Var Var 1 kt METAR EDWE 290450Z VRB01KT 0500 R07/1200D FG VV/// 02/02 Q0999
06:20
L
3 °C 450 m - Var Var 2 kt METAR EDWE 290420Z VRB02KT 0450 R07/1200D FG VV/// 03/03 Q0999
05:50
L
3 °C 600 m - Var Var 2 kt METAR EDWE 290350Z AUTO VRB02KT 0600 R07/2000U // VV/// 03/03 Q0999
05:20
L
3 °C 650 m - Var Var 1 kt METAR EDWE 290320Z AUTO VRB01KT 0650 R07/1100U // VV/// 03/02 Q0999
04:50
L
3 °C 550 m - Var 000° 0 kt METAR EDWE 290250Z AUTO 00000KT 0550 R07/1300D // VV/// 03/02 Q0999
04:20
L
3 °C 450 m - 150° 150° 4 kt METAR EDWE 290220Z AUTO 15004KT 0450 R07/0650D // VV/// 03/03 Q0999
03:50
L
3 °C 500 m - Var Var 2 kt METAR EDWE 290150Z AUTO VRB02KT 0500 R07/0800N // VV/// 03/03 Q0999
03:20
L
4 °C 550 m - Var Var 1 kt METAR EDWE 290120Z AUTO VRB01KT 0550 R07/1600U // VV/// 04/04 Q0999
02:50
L
3 °C 500 m - 150° 150° 2 kt METAR EDWE 290050Z AUTO 15002KT 0500 R07/1200U // VV/// 03/03 Q0999
02:20
L
4 °C 600 m - Var 000° 0 kt METAR EDWE 290020Z AUTO 00000KT 0600 R07/0900D // SCT003/// 04/03 Q0999
01:50
L
5 °C 400 m - 150° 150° 3 kt METAR EDWE 282350Z AUTO 15003KT 0400 R07/0800N // VV/// 05/05 Q0999
01:20
L
4 °C 400 m - Var Var 1 kt METAR EDWE 282320Z AUTO VRB01KT 0400 R07/1400D // VV/// 04/04 Q0999
00:50
L
4 °C 300 m - Var Var 1 kt METAR EDWE 282250Z AUTO VRB01KT 0300 R07/1800U // VV/// 04/04 Q0999
00:20
L
4 °C 350 m - Var Var 2 kt METAR EDWE 282220Z AUTO VRB02KT 0350 R07/0450D // VV/// 04/03 Q0999

28 de septiembre de 2022

Hora Código Tiempo Temp. Visibilidad Cielo nuboso Viento METAR/SPECI
23:50
L
6 °C 250 m - Var 000° 0 kt METAR EDWE 282150Z AUTO 00000KT 0250 R07/0350N // SCT002/// 06/06 Q0998
23:20
L
6 °C 550 m - Var Var 2 kt METAR EDWE 282120Z AUTO VRB02KT 0550 R07/0700D // NCD 06/06 Q0998
22:50
L
5 °C 600 m - Var Var 2 kt METAR EDWE 282050Z AUTO VRB02KT 0600 R07/1100U // NCD 05/04 Q0998
22:20
L
6 °C 600 m - 130° 130° 1 kt METAR EDWE 282020Z AUTO 13001KT 0600 R07/1000U // FEW003/// 06/05 Q0998
21:50
L
7 °C 550 m - 150° 150° 3 kt METAR EDWE 281950Z AUTO 15003KT 080V190 0550 R07/0750D // NCD 07/06 Q0998
21:20
L
8 °C 750 m - 140° 140° 3 kt METAR EDWE 281920Z AUTO 14003KT 0750 R07/1500D // NCD 08/07 Q0998
20:50
L
8 °C 900 m - 130° 130° 4 kt METAR EDWE 281850Z AUTO 13004KT 0900 R07/1200D // FEW003/// 08/07 Q0998
14:50
V
14 °C 10 km+ - 220° 220° 4 kt METAR EDWE 281250Z 22004KT 160V270 9999 SCT021CB 14/08 Q0996
14:20
V
13 °C 10 km+ - 230° 230° 4 kt METAR EDWE 281220Z 23004KT 160V300 9999 SCT018 13/08 Q0996
13:50
V
13 °C 10 km+ - 210° 210° 7 kt METAR EDWE 281150Z 21007KT 160V250 9999 SCT014 SCT048 13/08 Q0996
12:20
V
11 °C 10 km+ - 180° 180° 4 kt METAR EDWE 281020Z 18004KT 140V240 9999 SCT008 11/09 Q0996
11:50
V
11 °C 10 km+ - Var Var 2 kt METAR EDWE 280950Z VRB02KT 9999 SCT008 11/10 Q0996
11:20
L
8 °C 10 km+ 400 ft 220° 220° 3 kt METAR EDWE 280920Z 22003KT 190V250 9999 SCT001 BKN004 08/08 Q0996
10:50
L
8 °C 2 km 400 ft 210° 210° 3 kt METAR EDWE 280850Z 21003KT 170V260 2000 BR SCT001 BKN004 08/07 Q0995
Datos más antiguos

Nosotros y terceros seguimos tu comportamiento en Internet en nuestro sitio web con cookies. Si continúas, asumimos que estás de acuerdo con nuestra política de cookies. Más información